createdAt,value
2018-06-09T00:01:27.373Z,19.06
2018-06-09T00:03:57.563Z,19.14
2018-06-09T00:06:27.380Z,19.18
2018-06-09T00:08:57.733Z,19.06
2018-06-09T00:11:27.240Z,18.86
2018-06-09T00:13:57.127Z,18.58
2018-06-09T00:16:26.650Z,18.68
2018-06-09T00:18:57.549Z,18.74
2018-06-09T00:21:27.427Z,18.81
2018-06-09T00:23:57.185Z,18.86
2018-06-09T00:26:26.725Z,18.92
2018-06-09T00:28:56.291Z,18.86
2018-06-09T00:31:26.360Z,18.83
2018-06-09T00:33:57.249Z,18.81
2018-06-09T00:36:27.510Z,18.77
2018-06-09T00:38:57.328Z,18.64
2018-06-09T00:41:26.830Z,18.54
2018-06-09T00:43:57.029Z,18.46
2018-06-09T00:46:27.522Z,18.32
2018-06-09T00:48:57.482Z,18.36
2018-06-09T00:51:27.097Z,18.31
2018-06-09T00:53:56.909Z,18.31
2018-06-09T00:56:43.281Z,18.31
2018-06-09T00:59:12.500Z,18.25
2018-06-09T01:01:43.641Z,18.28
2018-06-09T01:04:13.457Z,18.40
2018-06-09T01:06:43.994Z,18.38
2018-06-09T01:09:13.498Z,18.31
2018-06-09T01:11:43.900Z,18.31
2018-06-09T01:14:13.435Z,18.12
2018-06-09T01:16:42.948Z,18.22
2018-06-09T01:19:12.552Z,18.27
2018-06-09T01:21:42.365Z,18.21
2018-06-09T01:24:12.786Z,18.27
2018-06-09T01:26:45.609Z,18.37
2018-06-09T01:29:15.708Z,18.33
2018-06-09T01:31:45.514Z,18.44
2018-06-09T01:34:15.317Z,18.52
2018-06-09T01:36:45.401Z,18.56
2018-06-09T01:39:15.841Z,18.55
2018-06-09T01:41:45.789Z,18.54
2018-06-09T01:44:15.593Z,18.54
2018-06-09T01:46:45.389Z,18.53
2018-06-09T01:49:15.417Z,18.45
2018-06-09T01:51:45.355Z,18.39
2018-06-09T01:54:14.941Z,18.35
2018-06-09T01:56:45.591Z,18.37
2018-06-09T01:59:15.165Z,18.35
2018-06-09T02:01:44.672Z,18.32
2018-06-09T02:04:14.621Z,18.31
2018-06-09T02:06:47.382Z,18.28
2018-06-09T02:09:17.301Z,18.29
2018-06-09T02:11:47.093Z,18.29
2018-06-09T02:14:16.915Z,18.27
2018-06-09T02:16:46.527Z,18.28
2018-06-09T02:19:17.156Z,18.26
2018-06-09T02:21:46.664Z,18.22
2018-06-09T02:24:16.939Z,18.14
2018-06-09T02:26:47.566Z,18.03
2018-06-09T02:29:17.742Z,18.06
2018-06-09T02:31:47.229Z,17.99
2018-06-09T02:34:17.853Z,17.89
2018-06-09T02:36:47.971Z,17.87
2018-06-09T02:39:17.480Z,17.84
2018-06-09T02:41:47.315Z,17.80
2018-06-09T02:44:17.113Z,17.78
2018-06-09T02:46:47.109Z,17.77
2018-06-09T02:49:17.337Z,17.71
2018-06-09T02:51:46.853Z,17.67
2018-06-09T02:54:16.670Z,17.65
2018-06-09T02:56:46.486Z,17.67
2018-06-09T02:59:16.097Z,17.68
2018-06-09T03:01:46.308Z,17.68
2018-06-09T03:04:16.521Z,17.76
2018-06-09T03:06:46.105Z,17.84
2018-06-09T03:09:15.903Z,17.89
2018-06-09T03:11:46.097Z,17.90
2018-06-09T03:14:15.645Z,17.92
2018-06-09T03:16:45.657Z,17.94
2018-06-09T03:19:16.157Z,17.90
2018-06-09T03:21:46.244Z,17.87
2018-06-09T03:24:16.634Z,17.76
2018-06-09T03:26:47.073Z,17.70
2018-06-09T03:29:16.575Z,17.71
2018-06-09T03:31:46.107Z,17.66
2018-06-09T03:34:16.437Z,17.67
2018-06-09T03:36:46.009Z,17.61
2018-06-09T03:39:16.248Z,17.51
2018-06-09T03:41:45.778Z,17.50
2018-06-09T03:44:16.109Z,17.44
2018-06-09T03:46:46.289Z,17.38
2018-06-09T03:49:16.177Z,17.36
2018-06-09T03:51:46.153Z,17.37
2018-06-09T03:54:16.017Z,17.41
2018-06-09T03:56:46.001Z,17.37
2018-06-09T03:59:15.873Z,17.36
2018-06-09T04:01:46.002Z,17.22
2018-06-09T04:04:15.508Z,17.18
2018-06-09T04:06:46.717Z,17.17
2018-06-09T04:09:16.555Z,17.23
2018-06-09T04:11:47.110Z,17.25
2018-06-09T04:14:16.641Z,17.26
2018-06-09T04:16:48.980Z,17.22
2018-06-09T04:19:18.892Z,17.20
2018-06-09T04:21:49.297Z,17.24
2018-06-09T04:24:19.421Z,17.35
2018-06-09T04:26:49.454Z,17.45
2018-06-09T04:29:19.897Z,17.55
2018-06-09T04:31:49.814Z,17.65
2018-06-09T04:34:19.829Z,17.73
2018-06-09T04:36:52.301Z,17.78
2018-06-09T04:39:23.005Z,17.85
2018-06-09T04:41:52.801Z,17.86
2018-06-09T04:44:23.060Z,17.77
2018-06-09T04:46:52.595Z,17.67
2018-06-09T04:49:22.113Z,17.63
2018-06-09T04:51:51.653Z,17.79
2018-06-09T04:54:21.473Z,17.90
2018-06-09T04:56:51.610Z,18.01
2018-06-09T04:59:22.153Z,18.15
2018-06-09T05:01:52.170Z,18.27
2018-06-09T05:04:21.758Z,18.44
2018-06-09T05:06:51.297Z,18.54
2018-06-09T05:09:21.409Z,18.69
2018-06-09T05:11:51.309Z,18.80
2018-06-09T05:14:21.764Z,18.85
2018-06-09T05:16:51.728Z,18.95
2018-06-09T05:19:21.244Z,19.11
2018-06-09T05:21:50.753Z,19.25
2018-06-09T05:24:20.953Z,19.41
2018-06-09T05:26:51.006Z,19.51
2018-06-09T05:29:20.805Z,19.63
2018-06-09T05:31:50.661Z,19.76
2018-06-09T05:34:20.173Z,19.93
2018-06-09T05:36:49.950Z,20.07
2018-06-09T05:39:19.967Z,20.15
2018-06-09T05:41:49.814Z,20.22
2018-06-09T05:44:19.625Z,20.21
2018-06-09T05:46:50.552Z,20.10
2018-06-09T05:49:20.701Z,20.15
2018-06-09T05:51:50.673Z,20.16
2018-06-09T05:54:20.591Z,20.34
2018-06-09T05:56:50.752Z,20.53
2018-06-09T05:59:21.098Z,20.69
2018-06-09T06:01:50.714Z,20.88
2018-06-09T06:04:20.834Z,21.06
2018-06-09T06:06:50.796Z,21.16
2018-06-09T06:09:20.617Z,21.16
2018-06-09T06:11:50.137Z,21.37
2018-06-09T06:14:19.658Z,21.51
2018-06-09T06:16:49.259Z,21.71
2018-06-09T06:19:18.892Z,21.83
2018-06-09T06:21:48.740Z,21.97
2018-06-09T06:24:19.665Z,22.19
2018-06-09T06:26:49.541Z,22.43
2018-06-09T06:29:19.684Z,22.65
2018-06-09T06:31:49.463Z,22.89
2018-06-09T06:34:20.114Z,23.07
2018-06-09T06:36:51.289Z,23.23
2018-06-09T06:39:21.425Z,23.51
2018-06-09T06:41:51.215Z,23.64
2018-06-09T06:44:21.029Z,23.88
2018-06-09T06:46:50.565Z,24.13
2018-06-09T06:49:20.118Z,24.49
2018-06-09T06:51:49.317Z,24.76
2018-06-09T06:54:20.348Z,24.95
2018-06-09T06:56:50.177Z,25.17
2018-06-09T06:59:19.692Z,25.20
2018-06-09T07:01:49.903Z,24.74
2018-06-09T07:04:19.456Z,24.74
2018-06-09T07:06:50.005Z,24.37
2018-06-09T07:09:19.801Z,24.27
2018-06-09T07:11:49.297Z,23.97
2018-06-09T07:14:18.796Z,24.09
2018-06-09T07:16:48.793Z,24.08
2018-06-09T07:19:18.307Z,24.07
2018-06-09T07:21:48.241Z,24.30
2018-06-09T07:24:18.254Z,24.44
2018-06-09T07:26:49.448Z,24.48
2018-06-09T07:29:19.495Z,24.48
2018-06-09T07:31:49.399Z,24.51
2018-06-09T07:34:19.632Z,24.61
2018-06-09T07:36:49.284Z,24.61
2018-06-09T07:39:19.593Z,24.95
2018-06-09T07:41:49.365Z,25.16
2018-06-09T07:44:19.799Z,25.39
2018-06-09T07:46:49.924Z,25.68
2018-06-09T07:49:19.911Z,25.68
2018-06-09T07:51:49.552Z,25.56
2018-06-09T07:54:20.269Z,25.72
2018-06-09T07:56:50.488Z,25.93
2018-06-09T07:59:20.405Z,25.95
2018-06-09T08:01:50.278Z,26.18
2018-06-09T08:04:20.208Z,25.99
2018-06-09T08:06:50.573Z,26.30
2018-06-09T08:09:20.385Z,26.38
2018-06-09T08:11:49.893Z,26.43
2018-06-09T08:14:21.245Z,26.54
2018-06-09T08:16:51.337Z,26.58
2018-06-09T08:19:21.063Z,26.48
2018-06-09T08:21:51.702Z,26.60
2018-06-09T08:24:21.530Z,26.84
2018-06-09T08:26:51.412Z,26.60
2018-06-09T08:29:22.649Z,26.76
2018-06-09T08:31:53.329Z,26.96
2018-06-09T08:34:23.216Z,27.14
2018-06-09T08:36:52.969Z,27.12
2018-06-09T08:39:23.428Z,27.31
2018-06-09T08:41:53.354Z,27.53
2018-06-09T08:44:24.334Z,27.62
2018-06-09T08:46:54.400Z,27.70
2018-06-09T08:49:24.337Z,27.86
2018-06-09T08:51:53.833Z,27.81
2018-06-09T08:54:23.353Z,28.08
2018-06-09T08:56:53.207Z,27.99
2018-06-09T08:59:23.661Z,28.09
2018-06-09T09:01:53.922Z,28.13
2018-06-09T09:04:23.426Z,28.22
2018-06-09T09:06:53.665Z,28.29
2018-06-09T09:09:24.633Z,28.52
2018-06-09T09:11:54.501Z,28.71
2018-06-09T09:14:24.687Z,28.81
2018-06-09T09:16:54.209Z,28.87
2018-06-09T09:19:24.388Z,29.01
2018-06-09T09:21:54.345Z,29.01
2018-06-09T09:24:24.445Z,28.95
2018-06-09T09:26:54.679Z,28.95
2018-06-09T09:29:25.312Z,28.64
2018-06-09T09:31:55.343Z,28.58
2018-06-09T09:34:25.476Z,28.75
2018-06-09T09:36:56.194Z,28.60
2018-06-09T09:39:25.989Z,28.53
2018-06-09T09:41:55.533Z,28.57
2018-06-09T09:44:25.504Z,28.92
2018-06-09T09:46:55.746Z,29.21
2018-06-09T09:49:25.244Z,29.52
2018-06-09T09:51:55.133Z,29.72
2018-06-09T09:54:24.881Z,29.89
2018-06-09T09:56:54.673Z,29.49
2018-06-09T09:59:24.189Z,29.64
2018-06-09T10:01:53.698Z,28.76
2018-06-09T10:04:24.837Z,29.22
2018-06-09T10:06:54.333Z,29.20
2018-06-09T10:09:24.279Z,29.50
2018-06-09T10:11:54.398Z,29.41
2018-06-09T10:14:24.059Z,29.52
2018-06-09T10:16:54.532Z,29.78
2018-06-09T10:19:24.185Z,30.16
2018-06-09T10:21:54.235Z,29.49
2018-06-09T10:24:24.556Z,29.87
2018-06-09T10:26:54.077Z,30.20
2018-06-09T10:29:23.847Z,30.71
2018-06-09T10:31:53.355Z,30.47
2018-06-09T10:34:23.221Z,30.39
2018-06-09T10:36:53.342Z,30.42
2018-06-09T10:39:23.081Z,30.57
2018-06-09T10:41:52.597Z,30.05
2018-06-09T10:44:22.105Z,29.91
2018-06-09T10:46:51.621Z,29.80
2018-06-09T10:49:21.547Z,29.93
2018-06-09T10:51:51.497Z,29.69
2018-06-09T10:54:21.307Z,29.65
2018-06-09T10:56:50.797Z,29.72
2018-06-09T10:59:20.691Z,29.52
2018-06-09T11:01:50.217Z,29.62
2018-06-09T11:04:19.725Z,30.05
2018-06-09T11:06:49.438Z,29.65
2018-06-09T11:09:19.005Z,29.50
2018-06-09T11:11:49.486Z,29.68
2018-06-09T11:14:19.709Z,29.64
2018-06-09T11:16:49.609Z,29.75
2018-06-09T11:19:19.495Z,30.26
2018-06-09T11:21:49.093Z,30.64
2018-06-09T11:24:19.260Z,30.77
2018-06-09T11:26:50.032Z,30.73
2018-06-09T11:29:20.783Z,30.66
2018-06-09T11:31:51.037Z,31.18
2018-06-09T11:34:21.461Z,31.62
2018-06-09T11:36:51.273Z,31.55
2018-06-09T11:39:21.792Z,31.45
2018-06-09T11:41:51.600Z,31.82
2018-06-09T11:44:21.170Z,31.86
2018-06-09T11:46:50.859Z,32.26
2018-06-09T11:49:20.643Z,32.05
2018-06-09T11:51:50.490Z,31.80
2018-06-09T11:54:20.698Z,31.84
2018-06-09T11:56:51.089Z,31.93
2018-06-09T11:59:20.597Z,32.50
2018-06-09T12:01:50.719Z,32.09
2018-06-09T12:04:20.908Z,32.72
2018-06-09T12:06:50.665Z,32.92
2018-06-09T12:09:20.169Z,32.92
2018-06-09T12:11:50.341Z,32.38
2018-06-09T12:14:20.497Z,32.43
2018-06-09T12:16:51.126Z,32.45
2018-06-09T12:19:21.345Z,32.68
2018-06-09T12:21:51.276Z,32.16
2018-06-09T12:24:21.485Z,31.72
2018-06-09T12:26:51.701Z,32.05
2018-06-09T12:29:22.015Z,32.63
2018-06-09T12:31:52.237Z,32.73
2018-06-09T12:34:22.612Z,33.01
2018-06-09T12:36:52.625Z,33.27
2018-06-09T12:39:22.526Z,33.24
2018-06-09T12:41:52.043Z,33.61
2018-06-09T12:44:21.951Z,33.72
2018-06-09T12:46:51.797Z,33.48
2018-06-09T12:49:21.558Z,33.83
2018-06-09T12:51:51.916Z,33.99
2018-06-09T12:54:21.452Z,34.30
2018-06-09T12:56:51.317Z,34.17
2018-06-09T12:59:20.849Z,33.97
2018-06-09T13:01:50.801Z,33.74
2018-06-09T13:04:20.948Z,33.50
2018-06-09T13:06:50.629Z,33.50
2018-06-09T13:09:20.385Z,33.36
2018-06-09T13:11:49.883Z,33.38
2018-06-09T13:14:19.981Z,33.28
2018-06-09T13:16:50.101Z,33.39
2018-06-09T13:19:19.913Z,33.46
2018-06-09T13:21:49.853Z,33.97
2018-06-09T13:24:19.389Z,34.27
2018-06-09T13:26:49.270Z,34.64
2018-06-09T13:29:19.129Z,34.95
2018-06-09T13:31:48.651Z,34.65
2018-06-09T13:34:18.189Z,34.42
2018-06-09T13:36:48.331Z,34.94
2018-06-09T13:39:18.125Z,34.11
2018-06-09T13:41:48.109Z,34.37
2018-06-09T13:44:18.176Z,34.25
2018-06-09T13:46:48.198Z,33.80
2018-06-09T13:49:18.908Z,32.84
2018-06-09T13:51:48.741Z,32.36
2018-06-09T13:54:18.845Z,32.07
2018-06-09T13:56:49.482Z,31.92
2018-06-09T13:59:19.337Z,31.74
2018-06-09T14:01:49.291Z,31.50
2018-06-09T14:04:20.000Z,31.22
2018-06-09T14:06:49.978Z,30.61
2018-06-09T14:09:19.820Z,30.03
2018-06-09T14:11:49.443Z,29.77
2018-06-09T14:14:19.821Z,29.52
2018-06-09T14:16:49.960Z,29.45
2018-06-09T14:19:19.744Z,29.20
2018-06-09T14:21:49.926Z,29.15
2018-06-09T14:24:20.432Z,29.01
2018-06-09T14:26:50.486Z,28.88
2018-06-09T14:29:20.325Z,28.84
2018-06-09T14:31:50.201Z,28.91
2018-06-09T14:34:19.691Z,28.88
2018-06-09T14:36:49.681Z,28.93
2018-06-09T14:39:20.391Z,28.82
2018-06-09T14:41:50.618Z,28.79
2018-06-09T14:44:20.117Z,28.67
2018-06-09T14:46:53.825Z,28.65
2018-06-09T14:49:23.583Z,28.58
2018-06-09T14:51:53.826Z,28.50
2018-06-09T14:54:23.020Z,28.15
2018-06-09T14:56:52.948Z,28.07
2018-06-09T14:59:23.401Z,28.02
2018-06-09T15:01:53.278Z,27.96
2018-06-09T15:04:22.467Z,28.01
2018-06-09T15:06:51.657Z,27.93
2018-06-09T15:09:22.308Z,27.89
2018-06-09T15:11:51.848Z,27.89
2018-06-09T15:14:21.605Z,27.66
2018-06-09T15:16:51.574Z,27.37
2018-06-09T15:19:21.118Z,27.20
2018-06-09T15:21:51.050Z,27.08
2018-06-09T15:24:20.821Z,26.96
2018-06-09T15:26:50.846Z,26.94
2018-06-09T15:29:20.349Z,26.82
2018-06-09T15:31:50.110Z,26.81
2018-06-09T15:34:19.925Z,26.68
2018-06-09T15:36:49.910Z,26.76
2018-06-09T15:39:19.449Z,26.69
2018-06-09T15:41:49.645Z,26.57
2018-06-09T15:44:19.563Z,26.44
2018-06-09T15:46:49.833Z,26.31
2018-06-09T15:49:19.373Z,26.33
2018-06-09T15:51:49.362Z,26.26
2018-06-09T15:54:18.857Z,26.26
2018-06-09T15:56:48.538Z,26.21
2018-06-09T15:59:18.405Z,26.21
2018-06-09T16:01:47.938Z,26.29
2018-06-09T16:04:17.424Z,26.43
2018-06-09T16:06:47.233Z,26.42
2018-06-09T16:09:16.748Z,26.50
2018-06-09T16:11:46.544Z,26.48
2018-06-09T16:14:16.339Z,26.39
2018-06-09T16:16:45.830Z,26.45
2018-06-09T16:19:15.759Z,26.35
2018-06-09T16:21:45.301Z,26.38
2018-06-09T16:24:14.844Z,26.33
2018-06-09T16:26:44.620Z,26.63
2018-06-09T16:29:15.048Z,26.82
2018-06-09T16:31:45.698Z,27.13
2018-06-09T16:34:16.234Z,27.10
2018-06-09T16:36:46.721Z,26.97
2018-06-09T16:39:16.455Z,26.77
2018-06-09T16:41:46.356Z,26.79
2018-06-09T16:44:17.493Z,26.75
2018-06-09T16:46:47.534Z,26.92
2018-06-09T16:49:17.749Z,26.89
2018-06-09T16:51:47.609Z,26.93
2018-06-09T16:54:17.374Z,27.02
2018-06-09T16:56:47.374Z,27.07
2018-06-09T16:59:17.244Z,26.97
2018-06-09T17:01:46.797Z,26.86
2018-06-09T17:04:16.845Z,26.91
2018-06-09T17:06:46.443Z,26.96
2018-06-09T17:09:16.653Z,27.04
2018-06-09T17:11:47.041Z,27.25
2018-06-09T17:14:17.497Z,27.39
2018-06-09T17:16:47.204Z,27.30
2018-06-09T17:19:16.933Z,27.23
2018-06-09T17:21:46.907Z,27.23
2018-06-09T17:24:17.141Z,27.27
2018-06-09T17:26:47.373Z,27.35
2018-06-09T17:29:17.846Z,27.43
2018-06-09T17:31:47.608Z,27.52
2018-06-09T17:34:17.686Z,27.49
2018-06-09T17:36:47.787Z,27.45
2018-06-09T17:39:17.577Z,27.41
2018-06-09T17:41:47.118Z,27.31
2018-06-09T17:44:17.056Z,27.23
2018-06-09T17:46:47.008Z,27.12
2018-06-09T17:49:16.507Z,26.92
2018-06-09T17:51:46.287Z,26.95
2018-06-09T17:54:16.064Z,26.99
2018-06-09T17:56:45.584Z,26.85
2018-06-09T17:59:15.333Z,26.88
2018-06-09T18:01:45.643Z,26.80
2018-06-09T18:04:15.864Z,26.80
2018-06-09T18:06:45.404Z,26.84
2018-06-09T18:09:15.452Z,26.64
2018-06-09T18:11:45.237Z,26.46
2018-06-09T18:14:14.986Z,26.58
2018-06-09T18:16:44.859Z,26.67
2018-06-09T18:19:14.637Z,26.52
2018-06-09T18:21:44.997Z,26.49
2018-06-09T18:24:15.181Z,26.52
2018-06-09T18:26:44.673Z,26.61
2018-06-09T18:29:14.875Z,26.65
2018-06-09T18:31:44.823Z,26.65
2018-06-09T18:34:14.304Z,26.67
2018-06-09T18:36:43.880Z,26.54
2018-06-09T18:39:13.629Z,26.44
2018-06-09T18:41:43.561Z,26.39
2018-06-09T18:44:13.657Z,26.32
2018-06-09T18:46:43.884Z,25.82
2018-06-09T18:49:14.405Z,25.74
2018-06-09T18:51:44.449Z,25.82
2018-06-09T18:54:14.557Z,25.95
2018-06-09T18:56:44.061Z,26.00
2018-06-09T18:59:13.582Z,25.64
2018-06-09T19:01:43.373Z,25.65
2018-06-09T19:04:13.032Z,25.52
2018-06-09T19:06:42.817Z,25.46
2018-06-09T19:09:13.133Z,25.23
2018-06-09T19:11:42.784Z,25.15
2018-06-09T19:14:12.489Z,25.14
2018-06-09T19:16:42.329Z,24.98
2018-06-09T19:19:12.223Z,25.04
2018-06-09T19:21:42.055Z,25.16
2018-06-09T19:24:11.910Z,25.16
2018-06-09T19:26:41.681Z,25.04
2018-06-09T19:29:11.652Z,24.95
2018-06-09T19:31:41.450Z,25.03
2018-06-09T19:34:11.160Z,25.03
2018-06-09T19:36:40.970Z,24.76
2018-06-09T19:39:11.088Z,24.49
2018-06-09T19:41:40.797Z,24.49
2018-06-09T19:44:10.507Z,24.52
2018-06-09T19:46:40.265Z,24.43
2018-06-09T19:49:09.981Z,24.45
2018-06-09T19:51:39.783Z,24.47
2018-06-09T19:54:09.540Z,24.50
2018-06-09T19:56:39.317Z,24.53
2018-06-09T19:59:09.050Z,24.47
2018-06-09T20:01:38.897Z,24.40
2018-06-09T20:04:08.604Z,24.45
2018-06-09T20:06:38.310Z,24.47
2018-06-09T20:09:09.186Z,24.32
2018-06-09T20:11:38.868Z,23.79
2018-06-09T20:14:08.587Z,23.22
2018-06-09T20:16:38.793Z,23.38
2018-06-09T20:19:08.967Z,23.39
2018-06-09T20:21:38.680Z,23.40
2018-06-09T20:24:09.153Z,23.24
2018-06-09T20:26:39.453Z,23.42
2018-06-09T20:29:09.275Z,23.39
2018-06-09T20:31:39.522Z,23.34
2018-06-09T20:34:09.493Z,23.32
2018-06-09T20:36:39.118Z,23.33
2018-06-09T20:39:09.253Z,23.18
2018-06-09T20:41:39.111Z,22.90
2018-06-09T20:44:09.389Z,22.39
2018-06-09T20:46:40.397Z,22.26
2018-06-09T20:49:10.269Z,22.05
2018-06-09T20:51:40.258Z,21.97
2018-06-09T20:54:11.381Z,21.95
2018-06-09T20:56:41.293Z,21.57
2018-06-09T20:59:11.228Z,21.37
2018-06-09T21:01:41.101Z,21.42
2018-06-09T21:04:14.168Z,21.29
2018-06-09T21:06:46.710Z,21.51
2018-06-09T21:09:18.426Z,21.34
2018-06-09T21:11:53.695Z,21.29
2018-06-09T21:14:25.900Z,21.08
2018-06-09T21:16:59.906Z,20.74
2018-06-09T21:19:34.650Z,20.60
2018-06-09T21:22:07.136Z,20.52
2018-06-09T21:24:38.978Z,20.61
2018-06-09T21:27:15.432Z,20.74
2018-06-09T21:29:51.162Z,20.94
2018-06-09T21:32:29.094Z,21.00
2018-06-09T21:35:21.847Z,21.05
2018-06-09T21:37:56.530Z,20.91
2018-06-09T21:40:31.774Z,21.03
2018-06-09T21:43:08.559Z,21.12
2018-06-09T21:45:44.046Z,21.18
2018-06-09T21:48:13.738Z,21.23
2018-06-09T21:50:44.054Z,21.20
2018-06-09T21:53:14.306Z,21.12
2018-06-09T21:55:44.254Z,21.23
2018-06-09T21:58:14.058Z,21.14
2018-06-09T22:00:43.863Z,21.13
2018-06-09T22:03:13.717Z,21.14
2018-06-09T22:05:43.481Z,20.77
2018-06-09T22:08:13.289Z,20.72
2018-06-09T22:10:43.089Z,20.80
2018-06-09T22:13:12.817Z,20.87
2018-06-09T22:15:42.615Z,20.80
2018-06-09T22:18:12.782Z,20.89
2018-06-09T22:20:43.882Z,20.92
2018-06-09T22:23:14.004Z,21.01
2018-06-09T22:25:49.229Z,21.06
2018-06-09T22:28:19.380Z,20.87
2018-06-09T22:30:49.346Z,20.88
2018-06-09T22:33:19.729Z,20.98
2018-06-09T22:35:49.878Z,20.97
2018-06-09T22:38:19.613Z,21.01
2018-06-09T22:40:49.793Z,21.04
2018-06-09T22:43:19.538Z,21.13
2018-06-09T22:45:49.293Z,21.11
2018-06-09T22:48:19.546Z,21.10
2018-06-09T22:50:50.025Z,21.08
2018-06-09T22:53:19.774Z,21.07
2018-06-09T22:55:49.685Z,20.97
2018-06-09T22:58:19.622Z,20.68
2018-06-09T23:00:50.655Z,20.52
2018-06-09T23:03:21.516Z,20.49
2018-06-09T23:05:51.429Z,20.45
2018-06-09T23:08:21.314Z,20.59
2018-06-09T23:10:51.724Z,20.69
2018-06-09T23:13:21.639Z,20.72
2018-06-09T23:15:51.512Z,20.69
2018-06-09T23:18:22.169Z,20.73
2018-06-09T23:20:52.648Z,20.65
2018-06-09T23:23:22.348Z,20.67
2018-06-09T23:25:51.937Z,20.62
2018-06-09T23:28:21.515Z,20.69
2018-06-09T23:30:51.494Z,20.76
2018-06-09T23:33:21.889Z,20.81
2018-06-09T23:35:51.454Z,20.87
2018-06-09T23:38:21.284Z,20.93
2018-06-09T23:40:51.269Z,20.85
2018-06-09T23:43:21.002Z,20.66
2018-06-09T23:45:50.862Z,20.73
2018-06-09T23:48:21.294Z,20.78
2018-06-09T23:50:51.512Z,20.79
2018-06-09T23:53:21.279Z,20.64
2018-06-09T23:55:51.104Z,20.62
2018-06-09T23:58:21.372Z,20.61
